ニジネヴァルトフスク の空港の天気 - METARとTAF

Nizhnevartovsk ( USNN / NJC ) - ロシア ニジネヴァルトフスク
飛行場実況気象(Metar)
観測時間04/21 19:30 YEKT (04/21 14:30 UTC)
風向・風速南 3m/s
視程10km以上
天気現象
全天を覆う雲 雲底高度 1280m
気温0℃
湿度64%
気圧1016hPa
METARUSNN 211430Z 18003MPS 9999 OVC042 00/M06 Q1016 R21/0///65 NOSIG RMK QFE757
過去の天気等 Google飛行場航空写真 Wunderground天気予報

過去48時間のMETAR

飛行場予報(TAF)
発表時間: 4/21 19:00 YEKT (4/21 14:00 UTC)
予報対象時間: 21日20時 YEKT ~ 22日20時 YEKT
風向・風速南西 3m/s 瞬間風速 8m/s
視程10km以上
全天を覆う雲 雲底高度 910m
21日20時 YEKT ~ 22日2時 YEKT に一時的に
視程3100m
天気現象弱いしゅう雪雨
全天の4割程度の雲 雲底高度 340m
全天の8割程度の積乱雲 雲底高度 610m
TAF USNN 211400Z 2115/2215 22003G08MPS 9999 OVC030
TEMPO 2115/2121 3100 -SHSNRA SCT011 BKN020CB